createdAt,value
2023-05-24T00:00:33.808Z,4.93
2023-05-24T00:03:39.514Z,4.60
2023-05-24T00:06:42.695Z,4.90
2023-05-24T00:09:45.103Z,4.95
2023-05-24T00:12:47.502Z,5.07
2023-05-24T00:15:49.890Z,5.30
2023-05-24T00:18:52.402Z,4.95
2023-05-24T00:21:55.576Z,4.97
2023-05-24T00:24:58.083Z,4.60
2023-05-24T00:28:00.626Z,4.50
2023-05-24T00:31:03.085Z,5.32
2023-05-24T00:34:05.615Z,5.18
2023-05-24T00:37:08.319Z,4.78
2023-05-24T00:40:11.627Z,5.13
2023-05-24T00:43:14.131Z,5.07
2023-05-24T00:46:16.974Z,4.95
2023-05-24T00:49:19.567Z,4.75
2023-05-24T00:52:21.937Z,4.82
2023-05-24T00:55:24.720Z,5.20
2023-05-24T00:58:31.105Z,5.17
2023-05-24T01:01:33.541Z,4.38
2023-05-24T01:04:37.988Z,4.78
2023-05-24T01:07:55.640Z,4.40
2023-05-24T01:11:10.778Z,5.10
2023-05-24T01:14:34.425Z,4.60
2023-05-24T01:17:54.143Z,4.40
2023-05-24T01:21:09.983Z,4.57
2023-05-24T01:24:33.919Z,4.65
2023-05-24T01:27:36.646Z,4.30
2023-05-24T01:30:40.560Z,4.40
2023-05-24T01:33:43.481Z,4.93
2023-05-24T01:36:45.936Z,4.30
2023-05-24T01:39:48.435Z,4.65
2023-05-24T01:43:18.502Z,4.60
2023-05-24T01:46:39.126Z,4.53
2023-05-24T01:49:46.036Z,4.85
2023-05-24T01:52:48.414Z,4.70
2023-05-24T01:55:51.708Z,4.30
2023-05-24T01:58:54.202Z,4.53
2023-05-24T02:01:56.837Z,4.33
2023-05-24T02:04:59.216Z,4.13
2023-05-24T02:08:02.411Z,5.63
2023-05-24T02:11:04.836Z,4.47
2023-05-24T02:14:07.257Z,4.15
2023-05-24T02:17:09.880Z,4.30
2023-05-24T02:20:13.585Z,4.28
2023-05-24T02:23:16.096Z,4.63
2023-05-24T02:26:21.288Z,4.47
2023-05-24T02:29:23.734Z,4.40
2023-05-24T02:32:26.259Z,4.20
2023-05-24T02:35:28.681Z,4.32
2023-05-24T02:38:32.110Z,4.03
2023-05-24T02:41:34.671Z,4.45
2023-05-24T02:44:37.118Z,4.20
2023-05-24T02:47:39.583Z,4.53
2023-05-24T02:50:42.176Z,4.68
2023-05-24T02:53:45.460Z,4.43
2023-05-24T02:56:48.617Z,4.18
2023-05-24T02:59:53.091Z,4.10
2023-05-24T03:03:00.945Z,4.20
2023-05-24T03:06:03.562Z,4.18
2023-05-24T03:09:05.930Z,4.32
2023-05-24T03:12:08.478Z,4.88
2023-05-24T03:15:11.600Z,4.57
2023-05-24T03:18:13.998Z,4.50
2023-05-24T03:21:18.232Z,4.40
2023-05-24T03:24:20.909Z,4.75
2023-05-24T03:27:24.616Z,4.45
2023-05-24T03:30:27.016Z,4.88
2023-05-24T03:33:32.249Z,4.70
2023-05-24T03:36:34.661Z,4.93
2023-05-24T03:39:37.060Z,4.88
2023-05-24T03:43:05.494Z,5.03
2023-05-24T03:46:22.425Z,4.90
2023-05-24T03:49:24.821Z,5.30
2023-05-24T03:52:28.097Z,5.22
2023-05-24T03:55:30.595Z,5.70
2023-05-24T03:58:33.289Z,5.88
2023-05-24T04:01:36.896Z,5.43
2023-05-24T04:04:39.561Z,5.20
2023-05-24T04:07:43.856Z,5.60
2023-05-24T04:10:47.544Z,5.70
2023-05-24T04:13:51.359Z,5.13
2023-05-24T04:16:53.965Z,5.13
2023-05-24T04:19:56.489Z,5.27
2023-05-24T04:22:59.150Z,5.75
2023-05-24T04:26:01.835Z,5.55
2023-05-24T04:29:05.473Z,5.68
2023-05-24T04:32:10.217Z,4.88
2023-05-24T04:35:12.679Z,5.07
2023-05-24T04:38:15.126Z,5.55
2023-05-24T04:41:17.545Z,5.13
2023-05-24T04:44:19.921Z,4.80
2023-05-24T04:47:22.366Z,5.40
2023-05-24T04:50:24.821Z,5.43
2023-05-24T04:53:27.301Z,5.45
2023-05-24T04:56:29.680Z,5.80
2023-05-24T04:59:32.033Z,5.60
2023-05-24T05:02:34.671Z,6.00
2023-05-24T05:05:37.134Z,6.17
2023-05-24T05:08:39.490Z,5.95
2023-05-24T05:11:42.009Z,5.60
2023-05-24T05:14:44.368Z,6.00
2023-05-24T05:17:46.966Z,5.63
2023-05-24T05:20:49.762Z,5.93
2023-05-24T05:23:52.210Z,5.85
2023-05-24T05:26:54.632Z,6.03
2023-05-24T05:29:57.155Z,6.78
2023-05-24T05:32:59.684Z,5.65
2023-05-24T05:36:02.183Z,6.40
2023-05-24T05:39:05.137Z,6.00
2023-05-24T05:42:07.609Z,5.90
2023-05-24T05:45:10.595Z,7.20
2023-05-24T05:48:13.027Z,7.18
2023-05-24T05:51:15.448Z,7.77
2023-05-24T05:54:18.538Z,8.07
2023-05-24T05:57:24.404Z,8.00
2023-05-24T06:00:26.922Z,8.27
2023-05-24T06:03:29.594Z,8.10
2023-05-24T06:06:33.291Z,8.17
2023-05-24T06:09:35.669Z,8.30
2023-05-24T06:12:40.517Z,8.02
2023-05-24T06:15:43.040Z,8.32
2023-05-24T06:18:57.121Z,8.02
2023-05-24T06:22:04.456Z,8.03
2023-05-24T06:25:07.075Z,8.20
2023-05-24T06:28:09.942Z,7.72
2023-05-24T06:31:12.356Z,7.88
2023-05-24T06:34:19.069Z,7.82
2023-05-24T06:37:25.389Z,7.03
2023-05-24T06:40:30.531Z,7.30
2023-05-24T06:43:33.514Z,7.43
2023-05-24T06:46:36.138Z,7.28
2023-05-24T06:49:39.150Z,7.47
2023-05-24T06:52:41.939Z,7.40
2023-05-24T06:55:44.357Z,8.60
2023-05-24T06:58:46.932Z,8.00
2023-05-24T07:01:51.794Z,9.30
2023-05-24T07:04:54.678Z,7.25
2023-05-24T07:07:57.209Z,7.37
2023-05-24T07:10:59.744Z,8.35
2023-05-24T07:14:02.280Z,7.85
2023-05-24T07:17:04.901Z,7.90
2023-05-24T07:20:10.655Z,7.65
2023-05-24T07:23:13.093Z,8.10
2023-05-24T07:26:16.018Z,7.95
2023-05-24T07:29:18.471Z,8.13
2023-05-24T07:32:24.106Z,8.30
2023-05-24T07:35:28.720Z,7.68
2023-05-24T07:38:31.307Z,8.00
2023-05-24T07:41:33.669Z,8.57
2023-05-24T07:44:36.240Z,8.10
2023-05-24T07:47:38.735Z,8.20
2023-05-24T07:50:41.276Z,8.50
2023-05-24T07:53:43.857Z,8.10
2023-05-24T07:56:47.309Z,8.43
2023-05-24T07:59:49.854Z,8.32
2023-05-24T08:02:52.451Z,7.88
2023-05-24T08:05:54.958Z,7.97
2023-05-24T08:08:57.321Z,8.03
2023-05-24T08:11:59.700Z,8.60
2023-05-24T08:15:02.162Z,9.30
2023-05-24T08:18:05.516Z,9.32
2023-05-24T08:21:09.039Z,8.75
2023-05-24T08:24:11.873Z,8.90
2023-05-24T08:27:14.873Z,9.27
2023-05-24T08:30:17.654Z,8.18
2023-05-24T08:33:20.079Z,8.48
2023-05-24T08:36:22.895Z,8.13
2023-05-24T08:39:25.246Z,9.20
2023-05-24T08:42:28.050Z,8.60
2023-05-24T08:45:31.580Z,8.65
2023-05-24T08:48:35.189Z,8.57
2023-05-24T08:51:38.721Z,8.02
2023-05-24T08:54:41.421Z,7.70
2023-05-24T08:57:44.482Z,8.30
2023-05-24T09:00:46.901Z,7.57
2023-05-24T09:03:49.451Z,8.07
2023-05-24T09:06:52.283Z,7.90
2023-05-24T09:09:58.872Z,7.70
2023-05-24T09:13:03.044Z,7.85
2023-05-24T09:16:06.373Z,6.82
2023-05-24T09:19:08.831Z,6.10
2023-05-24T09:22:15.014Z,5.85
2023-05-24T09:25:17.695Z,5.40
2023-05-24T09:28:21.898Z,5.15
2023-05-24T09:31:34.680Z,5.40
2023-05-24T09:34:43.808Z,5.20
2023-05-24T09:37:47.193Z,5.35
2023-05-24T09:41:07.288Z,6.07
2023-05-24T09:44:09.708Z,5.95
2023-05-24T09:47:12.821Z,5.55
2023-05-24T09:50:17.507Z,5.80
2023-05-24T09:53:20.224Z,5.30
2023-05-24T09:56:23.782Z,4.77
2023-05-24T09:59:26.182Z,5.10
2023-05-24T10:02:33.311Z,4.90
2023-05-24T10:05:47.074Z,4.82
2023-05-24T10:08:49.553Z,4.68
2023-05-24T10:11:51.933Z,5.63
2023-05-24T10:14:57.572Z,5.28
2023-05-24T10:18:01.962Z,4.95
2023-05-24T10:21:08.566Z,4.63
2023-05-24T10:24:12.557Z,5.78
2023-05-24T10:27:16.651Z,5.57
2023-05-24T10:30:39.376Z,5.20
2023-05-24T10:33:43.616Z,5.05
2023-05-24T10:36:46.102Z,5.20
2023-05-24T10:39:48.503Z,5.10
2023-05-24T10:42:51.889Z,4.90
2023-05-24T10:45:54.405Z,5.07
2023-05-24T10:49:00.801Z,5.05
2023-05-24T10:52:08.227Z,4.32
2023-05-24T10:55:11.744Z,4.93
2023-05-24T10:58:14.238Z,5.27
2023-05-24T11:01:32.798Z,4.75
2023-05-24T11:04:40.243Z,4.30
2023-05-24T11:07:43.210Z,5.32
2023-05-24T11:10:46.730Z,4.75
2023-05-24T11:13:49.375Z,4.40
2023-05-24T11:16:52.057Z,4.47
2023-05-24T11:19:55.136Z,4.18
2023-05-24T11:22:57.583Z,4.85
2023-05-24T11:26:00.030Z,4.43
2023-05-24T11:29:04.966Z,4.60
2023-05-24T11:32:08.158Z,4.20
2023-05-24T11:35:12.698Z,4.35
2023-05-24T11:38:15.839Z,4.38
2023-05-24T11:41:18.222Z,4.28
2023-05-24T11:44:20.685Z,4.50
2023-05-24T11:47:23.628Z,5.03
2023-05-24T11:50:45.862Z,4.50
2023-05-24T11:53:48.743Z,3.97
2023-05-24T11:56:52.621Z,3.75
2023-05-24T11:59:55.473Z,4.30
2023-05-24T12:03:01.782Z,3.95
2023-05-24T12:06:04.348Z,3.97
2023-05-24T12:09:13.905Z,3.70
2023-05-24T12:12:16.270Z,3.63
2023-05-24T12:15:18.688Z,3.43
2023-05-24T12:18:26.026Z,4.18
2023-05-24T12:21:31.787Z,3.78
2023-05-24T12:24:34.272Z,3.95
2023-05-24T12:27:36.653Z,4.07
2023-05-24T12:30:43.662Z,3.23
2023-05-24T12:33:46.514Z,3.65
2023-05-24T12:36:48.988Z,3.85
2023-05-24T12:39:53.075Z,3.78
2023-05-24T12:42:57.951Z,3.72
2023-05-24T12:46:00.348Z,3.67
2023-05-24T12:49:05.040Z,3.25
2023-05-24T12:52:07.637Z,2.95
2023-05-24T12:55:10.019Z,3.40
2023-05-24T12:58:16.389Z,3.15
2023-05-24T13:01:19.188Z,3.10
2023-05-24T13:04:23.231Z,3.35
2023-05-24T13:07:25.762Z,3.45
2023-05-24T13:10:28.508Z,3.22
2023-05-24T13:13:32.640Z,3.05
2023-05-24T13:16:35.718Z,3.13
2023-05-24T13:19:38.182Z,3.22
2023-05-24T13:22:40.620Z,3.13
2023-05-24T13:25:43.092Z,2.97
2023-05-24T13:29:07.743Z,3.30
2023-05-24T13:32:07.887Z,2.80
2023-05-24T13:35:10.324Z,2.85
2023-05-24T13:38:13.051Z,3.08
2023-05-24T13:41:15.566Z,3.20
2023-05-24T13:44:18.134Z,3.30
2023-05-24T13:47:31.224Z,3.40
2023-05-24T13:50:38.238Z,3.08
2023-05-24T13:53:41.262Z,3.17
2023-05-24T13:56:45.030Z,2.97
2023-05-24T13:59:47.742Z,3.05
2023-05-24T14:02:50.290Z,3.57
2023-05-24T14:05:52.765Z,2.97
2023-05-24T14:08:55.188Z,3.40
2023-05-24T14:11:57.942Z,3.60
2023-05-24T14:15:00.603Z,3.15
2023-05-24T14:18:07.822Z,2.50
2023-05-24T14:21:10.838Z,2.75
2023-05-24T14:24:13.276Z,3.20
2023-05-24T14:27:15.902Z,3.00
2023-05-24T14:30:18.297Z,3.15
2023-05-24T14:33:20.812Z,2.80
2023-05-24T14:36:23.181Z,2.65
2023-05-24T14:39:25.696Z,2.75
2023-05-24T14:42:28.071Z,2.78
2023-05-24T14:45:30.420Z,2.75
2023-05-24T14:48:32.793Z,3.00
2023-05-24T14:51:35.554Z,2.78
2023-05-24T14:54:40.724Z,2.83
2023-05-24T14:57:44.598Z,3.08
2023-05-24T15:00:47.106Z,2.72
2023-05-24T15:03:49.704Z,2.83
2023-05-24T15:06:52.267Z,2.65
2023-05-24T15:09:54.858Z,2.92
2023-05-24T15:12:57.272Z,2.85
2023-05-24T15:16:00.665Z,2.38
2023-05-24T15:19:03.087Z,2.80
2023-05-24T15:22:05.986Z,2.95
2023-05-24T15:25:08.866Z,2.67
2023-05-24T15:28:12.929Z,2.90
2023-05-24T15:31:15.682Z,2.63
2023-05-24T15:34:18.190Z,3.13
2023-05-24T15:37:22.507Z,2.63
2023-05-24T15:40:24.971Z,2.83
2023-05-24T15:43:27.502Z,2.90
2023-05-24T15:46:30.105Z,2.58
2023-05-24T15:49:32.516Z,2.70
2023-05-24T15:52:35.311Z,2.67
2023-05-24T15:55:39.083Z,2.80
2023-05-24T15:58:41.481Z,2.60
2023-05-24T16:01:43.958Z,2.60
2023-05-24T16:04:46.363Z,3.13
2023-05-24T16:07:48.776Z,2.80
2023-05-24T16:10:51.603Z,2.20
2023-05-24T16:13:54.381Z,2.60
2023-05-24T16:16:58.829Z,2.28
2023-05-24T16:20:01.793Z,2.57
2023-05-24T16:23:04.496Z,2.20
2023-05-24T16:26:06.877Z,2.30
2023-05-24T16:29:10.634Z,2.75
2023-05-24T16:32:14.248Z,2.45
2023-05-24T16:35:16.768Z,2.53
2023-05-24T16:38:19.175Z,2.50
2023-05-24T16:41:21.610Z,2.40
2023-05-24T16:44:24.051Z,2.63
2023-05-24T16:47:29.448Z,2.53
2023-05-24T16:50:32.145Z,2.10
2023-05-24T16:53:34.561Z,2.58
2023-05-24T16:56:37.682Z,2.53
2023-05-24T16:59:42.310Z,2.47
2023-05-24T17:02:44.897Z,2.00
2023-05-24T17:05:47.458Z,2.40
2023-05-24T17:08:49.872Z,2.30
2023-05-24T17:11:52.227Z,2.42
2023-05-24T17:14:55.287Z,2.53
2023-05-24T17:17:57.835Z,2.45
2023-05-24T17:21:01.495Z,2.37
2023-05-24T17:24:04.060Z,2.47
2023-05-24T17:27:06.563Z,1.85
2023-05-24T17:30:09.679Z,2.40
2023-05-24T17:33:12.147Z,2.15
2023-05-24T17:36:14.558Z,2.20
2023-05-24T17:39:17.694Z,2.10
2023-05-24T17:42:20.053Z,2.05
2023-05-24T17:45:22.436Z,2.30
2023-05-24T17:48:24.808Z,2.10
2023-05-24T17:51:27.249Z,1.83
2023-05-24T17:54:29.810Z,2.35
2023-05-24T17:57:32.195Z,2.47
2023-05-24T18:00:34.606Z,2.38
2023-05-24T18:03:37.843Z,2.08
2023-05-24T18:06:40.419Z,2.10
2023-05-24T18:09:42.801Z,2.30
2023-05-24T18:12:45.203Z,2.10
2023-05-24T18:15:48.151Z,2.08
2023-05-24T18:18:50.632Z,1.95
2023-05-24T18:21:53.407Z,2.73
2023-05-24T18:24:55.779Z,2.35
2023-05-24T18:27:59.045Z,2.00
2023-05-24T18:31:01.543Z,2.25
2023-05-24T18:34:04.067Z,2.30
2023-05-24T18:37:06.457Z,2.63
2023-05-24T18:40:09.504Z,1.67
2023-05-24T18:43:11.894Z,1.70
2023-05-24T18:46:15.489Z,2.15
2023-05-24T18:49:18.032Z,1.90
2023-05-24T18:52:20.417Z,2.20
2023-05-24T18:55:22.805Z,2.78
2023-05-24T18:58:25.159Z,2.58
2023-05-24T19:01:28.378Z,2.10
2023-05-24T19:04:31.008Z,2.00
2023-05-24T19:07:34.321Z,2.30
2023-05-24T19:10:36.689Z,2.40
2023-05-24T19:13:41.721Z,2.00
2023-05-24T19:16:44.066Z,1.70
2023-05-24T19:19:46.719Z,1.83
2023-05-24T19:22:49.175Z,2.37
2023-05-24T19:25:51.571Z,1.80
2023-05-24T19:28:54.262Z,1.92
2023-05-24T19:31:56.732Z,1.88
2023-05-24T19:34:59.534Z,2.08
2023-05-24T19:38:01.909Z,2.20
2023-05-24T19:41:04.442Z,1.70
2023-05-24T19:44:06.820Z,1.83
2023-05-24T19:47:09.241Z,1.90
2023-05-24T19:50:11.639Z,1.85
2023-05-24T19:53:14.984Z,2.07
2023-05-24T19:56:17.333Z,2.08
2023-05-24T19:59:19.739Z,1.67
2023-05-24T20:02:22.159Z,2.05
2023-05-24T20:05:24.690Z,1.90
2023-05-24T20:08:27.105Z,1.30
2023-05-24T20:11:29.506Z,2.40
2023-05-24T20:14:31.978Z,2.20
2023-05-24T20:17:34.414Z,2.13
2023-05-24T20:20:36.966Z,1.80
2023-05-24T20:23:39.441Z,1.93
2023-05-24T20:26:42.011Z,2.35
2023-05-24T20:29:44.405Z,2.00
2023-05-24T20:32:46.816Z,2.10
2023-05-24T20:35:49.943Z,1.83
2023-05-24T20:38:52.278Z,2.50
2023-05-24T20:41:55.786Z,2.25
2023-05-24T20:44:59.118Z,2.38
2023-05-24T20:48:01.510Z,2.50
2023-05-24T20:51:04.010Z,2.10
2023-05-24T20:54:06.476Z,2.50
2023-05-24T20:57:08.826Z,2.33
2023-05-24T21:00:11.564Z,2.28
2023-05-24T21:03:14.093Z,2.40
2023-05-24T21:06:16.635Z,2.50
2023-05-24T21:09:19.026Z,2.57
2023-05-24T21:12:21.672Z,2.53
2023-05-24T21:15:24.058Z,2.78
2023-05-24T21:18:26.418Z,2.22
2023-05-24T21:21:28.770Z,2.70
2023-05-24T21:24:31.186Z,2.77
2023-05-24T21:27:33.865Z,2.50
2023-05-24T21:30:36.259Z,2.38
2023-05-24T21:33:42.706Z,2.85
2023-05-24T21:36:45.093Z,2.60
2023-05-24T21:39:48.080Z,2.57
2023-05-24T21:42:50.442Z,2.78
2023-05-24T21:45:52.860Z,2.88
2023-05-24T21:48:57.121Z,2.63
2023-05-24T21:51:59.577Z,2.72
2023-05-24T21:55:02.048Z,2.83
2023-05-24T21:58:04.484Z,2.72
2023-05-24T22:01:08.651Z,2.78
2023-05-24T22:04:11.289Z,2.95
2023-05-24T22:07:13.986Z,2.78
2023-05-24T22:10:16.658Z,2.70
2023-05-24T22:13:19.058Z,3.13
2023-05-24T22:16:21.488Z,2.80
2023-05-24T22:19:38.914Z,3.47
2023-05-24T22:22:53.840Z,2.78
2023-05-24T22:25:56.266Z,2.93
2023-05-24T22:29:00.971Z,3.03
2023-05-24T22:32:03.557Z,2.53
2023-05-24T22:35:06.520Z,2.67
2023-05-24T22:38:08.926Z,3.10
2023-05-24T22:41:11.375Z,3.30
2023-05-24T22:44:13.784Z,3.38
2023-05-24T22:47:17.073Z,3.60
2023-05-24T22:50:19.486Z,3.45
2023-05-24T22:53:22.955Z,3.63
2023-05-24T22:56:25.476Z,3.73
2023-05-24T22:59:27.909Z,3.90
2023-05-24T23:02:30.907Z,3.58
2023-05-24T23:05:34.722Z,3.83
2023-05-24T23:08:37.569Z,3.20
2023-05-24T23:11:39.976Z,3.60
2023-05-24T23:14:46.438Z,3.63
2023-05-24T23:17:52.283Z,3.47
2023-05-24T23:20:54.906Z,3.70
2023-05-24T23:23:57.302Z,3.33
2023-05-24T23:26:59.730Z,3.87
2023-05-24T23:30:02.099Z,3.80
2023-05-24T23:33:04.580Z,3.80
2023-05-24T23:36:07.357Z,4.10
2023-05-24T23:39:12.688Z,3.80
2023-05-24T23:42:15.218Z,3.90
2023-05-24T23:45:17.621Z,3.60
2023-05-24T23:48:23.232Z,3.95
2023-05-24T23:51:25.741Z,3.80
2023-05-24T23:54:28.201Z,4.00
2023-05-24T23:57:30.551Z,4.40
